createdAt,value
2022-10-18T00:02:11.689Z,6.35
2022-10-18T00:05:00.614Z,7.20
2022-10-18T00:07:48.158Z,7.18
2022-10-18T00:10:35.763Z,5.53
2022-10-18T00:13:24.867Z,5.30
2022-10-18T00:16:15.695Z,7.35
2022-10-18T00:19:03.610Z,5.15
2022-10-18T00:21:52.863Z,6.00
2022-10-18T00:24:40.676Z,5.75
2022-10-18T00:27:30.364Z,5.57
2022-10-18T00:30:18.378Z,6.57
2022-10-18T00:33:06.035Z,6.05
2022-10-18T00:35:58.057Z,9.18
2022-10-18T00:38:48.127Z,6.07
2022-10-18T00:41:39.448Z,5.85
2022-10-18T00:45:14.076Z,5.65
2022-10-18T00:48:05.617Z,6.63
2022-10-18T00:50:55.435Z,6.60
2022-10-18T00:53:43.136Z,5.93
2022-10-18T00:56:35.649Z,6.10
2022-10-18T00:59:23.604Z,7.97
2022-10-18T01:02:11.992Z,7.90
2022-10-18T01:05:01.634Z,7.05
2022-10-18T01:08:37.487Z,4.95
2022-10-18T01:11:48.482Z,7.85
2022-10-18T01:14:50.369Z,6.05
2022-10-18T01:18:08.800Z,5.20
2022-10-18T01:21:23.411Z,5.72
2022-10-18T01:24:51.934Z,6.32
2022-10-18T01:27:56.652Z,6.95
2022-10-18T01:31:00.090Z,4.90
2022-10-18T01:36:43.160Z,4.32
2022-10-18T01:39:37.817Z,5.85
2022-10-18T01:42:26.939Z,6.15
2022-10-18T01:45:16.743Z,5.50
2022-10-18T01:48:06.659Z,7.00
2022-10-18T01:50:55.051Z,7.25
2022-10-18T01:53:43.045Z,7.43
2022-10-18T01:56:42.836Z,5.65
2022-10-18T01:59:51.232Z,7.03
2022-10-18T02:02:52.099Z,5.35
2022-10-18T02:05:50.157Z,9.73
2022-10-18T02:08:47.437Z,6.70
2022-10-18T02:11:38.460Z,5.72
2022-10-18T02:14:28.893Z,5.70
2022-10-18T02:17:20.232Z,5.05
2022-10-18T02:20:12.766Z,6.78
2022-10-18T02:23:04.274Z,5.13
2022-10-18T02:25:53.535Z,8.13
2022-10-18T02:28:42.560Z,10.20
2022-10-18T02:31:38.104Z,6.32
2022-10-18T02:34:33.242Z,7.00
2022-10-18T02:37:21.921Z,6.35
2022-10-18T02:40:12.577Z,5.55
2022-10-18T02:43:00.799Z,7.25
2022-10-18T02:45:48.751Z,10.00
2022-10-18T02:48:36.307Z,5.13
2022-10-18T02:51:25.218Z,6.57
2022-10-18T02:54:12.610Z,6.57
2022-10-18T02:57:01.587Z,6.38
2022-10-18T02:59:49.164Z,11.68
2022-10-18T03:02:36.737Z,8.10
2022-10-18T03:05:24.418Z,8.25
2022-10-18T03:08:12.016Z,8.20
2022-10-18T03:10:59.630Z,10.27
2022-10-18T03:13:48.262Z,9.55
2022-10-18T03:16:35.648Z,7.63
2022-10-18T03:19:23.607Z,9.27
2022-10-18T03:22:11.246Z,9.88
2022-10-18T03:24:58.885Z,10.52
2022-10-18T03:27:46.356Z,6.60
2022-10-18T03:30:35.308Z,13.38
2022-10-18T03:33:22.997Z,11.85
2022-10-18T03:36:10.419Z,6.75
2022-10-18T03:38:57.854Z,7.78
2022-10-18T03:41:45.466Z,5.97
2022-10-18T03:44:33.020Z,8.70
2022-10-18T03:47:22.046Z,6.43
2022-10-18T03:50:10.610Z,11.63
2022-10-18T03:52:58.204Z,9.05
2022-10-18T03:55:45.846Z,8.73
2022-10-18T04:01:22.212Z,8.35
2022-10-18T04:04:11.148Z,11.75
2022-10-18T04:06:59.027Z,8.60
2022-10-18T04:09:46.715Z,8.70
2022-10-18T04:12:34.525Z,8.65
2022-10-18T04:15:22.419Z,10.13
2022-10-18T04:18:10.094Z,12.82
2022-10-18T04:20:58.881Z,10.82
2022-10-18T04:23:48.889Z,11.18
2022-10-18T04:26:36.739Z,9.60
2022-10-18T04:29:24.410Z,10.80
2022-10-18T04:32:12.211Z,11.43
2022-10-18T04:34:59.705Z,9.70
2022-10-18T04:37:48.625Z,15.77
2022-10-18T04:40:36.347Z,9.75
2022-10-18T04:43:24.619Z,12.32
2022-10-18T04:46:12.102Z,12.38
2022-10-18T04:49:01.211Z,12.15
2022-10-18T04:51:48.928Z,11.02
2022-10-18T04:54:39.185Z,13.55
2022-10-18T04:57:27.125Z,9.43
2022-10-18T05:00:15.864Z,9.93
2022-10-18T05:03:03.390Z,9.30
2022-10-18T05:06:01.351Z,12.93
2022-10-18T05:08:50.041Z,9.80
2022-10-18T05:11:39.537Z,8.70
2022-10-18T05:14:27.544Z,11.02
2022-10-18T05:17:15.588Z,10.77
2022-10-18T05:20:04.117Z,11.70
2022-10-18T05:22:51.796Z,11.30
2022-10-18T05:25:40.343Z,13.00
2022-10-18T05:28:45.128Z,13.15
2022-10-18T05:31:32.805Z,12.70
2022-10-18T05:34:20.818Z,11.50
2022-10-18T05:37:08.390Z,13.02
2022-10-18T05:39:55.896Z,12.05
2022-10-18T05:42:43.505Z,9.73
2022-10-18T05:45:32.262Z,14.73
2022-10-18T05:48:20.052Z,13.38
2022-10-18T05:51:08.022Z,13.52
2022-10-18T05:53:55.905Z,10.50
2022-10-18T05:56:43.696Z,13.50
2022-10-18T05:59:31.537Z,14.38
2022-10-18T06:02:20.445Z,11.77
2022-10-18T06:05:08.979Z,15.95
2022-10-18T06:07:59.086Z,10.60
2022-10-18T06:10:46.549Z,13.27
2022-10-18T06:13:34.055Z,10.63
2022-10-18T06:16:26.226Z,15.88
2022-10-18T06:19:17.861Z,10.88
2022-10-18T06:22:05.571Z,25.55
2022-10-18T06:24:57.119Z,13.00
2022-10-18T06:27:44.929Z,13.38
2022-10-18T06:30:34.119Z,12.30
2022-10-18T06:33:21.880Z,16.08
2022-10-18T06:36:15.450Z,12.52
2022-10-18T06:39:03.493Z,13.40
2022-10-18T06:41:51.038Z,13.02
2022-10-18T06:44:38.518Z,13.25
2022-10-18T06:47:26.086Z,17.02
2022-10-18T06:50:15.895Z,16.55
2022-10-18T06:53:08.565Z,16.33
2022-10-18T06:56:02.635Z,11.60
2022-10-18T06:58:50.642Z,13.02
2022-10-18T07:01:39.085Z,12.68
2022-10-18T07:04:30.746Z,19.60
2022-10-18T07:07:18.315Z,18.13
2022-10-18T07:10:12.933Z,11.93
2022-10-18T07:13:27.468Z,9.48
2022-10-18T07:16:17.324Z,15.73
2022-10-18T07:19:06.134Z,19.45
2022-10-18T07:21:54.777Z,16.02
2022-10-18T07:24:42.578Z,14.95
2022-10-18T07:27:31.853Z,15.75
2022-10-18T07:30:20.303Z,11.52
2022-10-18T07:33:08.112Z,11.10
2022-10-18T07:35:56.373Z,10.32
2022-10-18T07:38:44.883Z,16.92
2022-10-18T07:41:36.739Z,13.65
2022-10-18T07:44:42.851Z,13.85
2022-10-18T07:47:36.158Z,13.50
2022-10-18T07:50:25.951Z,11.68
2022-10-18T07:53:14.009Z,9.52
2022-10-18T07:56:07.117Z,13.48
2022-10-18T07:59:00.040Z,13.95
2022-10-18T08:01:49.075Z,13.82
2022-10-18T08:04:38.379Z,18.75
2022-10-18T08:07:26.840Z,14.15
2022-10-18T08:10:14.798Z,15.18
2022-10-18T08:13:05.253Z,13.35
2022-10-18T08:15:59.985Z,18.00
2022-10-18T08:18:49.472Z,13.27
2022-10-18T08:21:37.342Z,13.85
2022-10-18T08:24:26.083Z,13.63
2022-10-18T08:27:14.043Z,13.40
2022-10-18T08:30:02.675Z,12.30
2022-10-18T08:32:50.825Z,15.30
2022-10-18T08:35:39.986Z,15.55
2022-10-18T08:38:30.628Z,15.00
2022-10-18T08:41:31.230Z,17.90
2022-10-18T08:44:23.331Z,17.92
2022-10-18T08:47:16.144Z,18.95
2022-10-18T08:50:07.288Z,13.32
2022-10-18T08:53:04.538Z,14.70
2022-10-18T08:55:56.301Z,14.50
2022-10-18T08:58:45.137Z,16.85
2022-10-18T09:01:43.171Z,13.40
2022-10-18T09:04:47.533Z,13.55
2022-10-18T09:08:17.897Z,15.10
2022-10-18T09:11:20.537Z,14.45
2022-10-18T09:14:42.633Z,14.68
2022-10-18T09:17:38.019Z,16.65
2022-10-18T09:20:28.032Z,12.60
2022-10-18T09:23:21.301Z,15.23
2022-10-18T09:26:16.961Z,14.80
2022-10-18T09:29:14.422Z,18.67
2022-10-18T09:32:14.364Z,14.35
2022-10-18T09:35:13.026Z,13.02
2022-10-18T09:38:05.915Z,14.85
2022-10-18T09:40:57.768Z,14.80
2022-10-18T09:43:55.267Z,14.73
2022-10-18T09:46:48.958Z,10.95
2022-10-18T09:49:43.025Z,13.38
2022-10-18T09:52:39.971Z,11.02
2022-10-18T09:55:34.794Z,14.95
2022-10-18T09:58:25.658Z,12.40
2022-10-18T10:01:19.191Z,14.05
2022-10-18T10:04:07.545Z,10.05
2022-10-18T10:06:57.255Z,9.65
2022-10-18T10:09:47.782Z,9.73
2022-10-18T10:12:37.858Z,7.22
2022-10-18T10:15:31.236Z,7.18
2022-10-18T10:18:29.530Z,6.65
2022-10-18T10:21:19.740Z,11.10
2022-10-18T10:24:08.275Z,6.35
2022-10-18T10:27:05.139Z,7.05
2022-10-18T10:30:04.245Z,9.63
2022-10-18T10:32:57.146Z,6.10
2022-10-18T10:36:01.671Z,7.18
2022-10-18T10:39:05.547Z,10.88
2022-10-18T10:41:55.226Z,11.40
2022-10-18T10:44:56.754Z,11.00
2022-10-18T10:47:45.159Z,12.65
2022-10-18T10:53:53.053Z,11.60
2022-10-18T10:57:00.408Z,12.85
2022-10-18T10:59:51.275Z,14.10
2022-10-18T11:02:39.204Z,16.15
2022-10-18T11:05:44.671Z,15.77
2022-10-18T11:08:41.581Z,17.58
2022-10-18T11:11:36.092Z,21.13
2022-10-18T11:14:28.637Z,18.75
2022-10-18T11:17:23.653Z,9.88
2022-10-18T11:20:27.723Z,10.80
2022-10-18T11:23:17.530Z,8.95
2022-10-18T11:26:29.295Z,5.60
2022-10-18T11:29:49.855Z,5.75
2022-10-18T11:32:44.256Z,7.70
2022-10-18T11:35:40.447Z,4.07
2022-10-18T11:38:37.842Z,6.35
2022-10-18T11:41:32.990Z,5.30
2022-10-18T11:44:29.445Z,4.80
2022-10-18T11:47:27.677Z,5.05
2022-10-18T11:50:26.882Z,7.57
2022-10-18T11:53:27.259Z,4.18
2022-10-18T11:56:23.112Z,9.82
2022-10-18T11:59:37.893Z,7.63
2022-10-18T12:02:55.864Z,6.70
2022-10-18T12:05:47.285Z,6.15
2022-10-18T12:08:39.797Z,8.20
2022-10-18T12:11:32.933Z,8.95
2022-10-18T12:14:27.107Z,9.27
2022-10-18T12:17:43.890Z,9.23
2022-10-18T12:20:37.104Z,8.48
2022-10-18T12:23:34.706Z,7.65
2022-10-18T12:26:23.449Z,9.32
2022-10-18T12:29:21.607Z,10.00
2022-10-18T12:32:12.779Z,7.93
2022-10-18T12:35:05.784Z,6.28
2022-10-18T12:38:07.210Z,7.47
2022-10-18T12:40:56.290Z,6.85
2022-10-18T12:43:53.713Z,5.45
2022-10-18T12:46:46.798Z,6.90
2022-10-18T12:49:39.106Z,7.03
2022-10-18T12:52:33.659Z,7.57
2022-10-18T12:55:36.858Z,5.82
2022-10-18T12:58:31.018Z,7.72
2022-10-18T13:01:20.063Z,6.75
2022-10-18T13:04:34.880Z,8.45
2022-10-18T13:07:41.623Z,6.32
2022-10-18T13:10:40.558Z,7.57
2022-10-18T13:13:58.539Z,7.20
2022-10-18T13:16:53.065Z,6.93
2022-10-18T13:20:02.837Z,7.28
2022-10-18T13:26:20.330Z,7.93
2022-10-18T13:29:37.534Z,10.43
2022-10-18T13:32:33.615Z,10.25
2022-10-18T13:35:45.285Z,6.95
2022-10-18T13:38:50.230Z,6.65
2022-10-18T13:42:11.846Z,7.70
2022-10-18T13:45:33.027Z,5.15
2022-10-18T13:48:49.648Z,5.72
2022-10-18T13:52:03.376Z,7.40
2022-10-18T13:55:04.840Z,6.13
2022-10-18T13:58:03.825Z,7.20
2022-10-18T14:01:04.357Z,6.35
2022-10-18T14:04:19.376Z,5.03
2022-10-18T14:07:09.129Z,5.78
2022-10-18T14:10:00.668Z,8.25
2022-10-18T14:12:58.804Z,8.85
2022-10-18T14:15:50.568Z,5.22
2022-10-18T14:18:43.799Z,4.43
2022-10-18T14:21:39.422Z,6.57
2022-10-18T14:24:30.125Z,5.28
2022-10-18T14:27:21.673Z,5.90
2022-10-18T14:30:12.040Z,6.15
2022-10-18T14:33:00.533Z,4.57
2022-10-18T14:36:03.243Z,4.22
2022-10-18T14:38:55.358Z,8.73
2022-10-18T14:41:51.235Z,4.22
2022-10-18T14:44:39.078Z,5.38
2022-10-18T14:47:28.553Z,4.78
2022-10-18T14:50:27.024Z,5.05
2022-10-18T14:53:22.291Z,6.47
2022-10-18T14:56:28.443Z,6.75
2022-10-18T14:59:22.599Z,5.70
2022-10-18T15:02:17.097Z,8.18
2022-10-18T15:05:09.152Z,4.90
2022-10-18T15:07:59.564Z,5.55
2022-10-18T15:10:48.281Z,5.80
2022-10-18T15:13:49.128Z,7.00
2022-10-18T15:16:38.580Z,9.20
2022-10-18T15:19:34.719Z,6.00
2022-10-18T15:22:33.349Z,6.70
2022-10-18T15:25:30.859Z,4.82
2022-10-18T15:28:29.633Z,5.40
2022-10-18T15:31:25.587Z,3.72
2022-10-18T15:34:19.908Z,6.82
2022-10-18T15:37:21.967Z,7.32
2022-10-18T15:40:37.880Z,3.60
2022-10-18T15:43:37.819Z,3.83
2022-10-18T15:46:41.746Z,4.55
2022-10-18T15:49:55.600Z,6.85
2022-10-18T15:52:44.202Z,6.68
2022-10-18T15:55:53.629Z,4.97
2022-10-18T15:58:44.973Z,5.40
2022-10-18T16:01:39.876Z,7.35
2022-10-18T16:04:30.146Z,4.82
2022-10-18T16:07:22.326Z,6.18
2022-10-18T16:10:14.933Z,4.82
2022-10-18T16:13:03.102Z,4.63
2022-10-18T16:15:51.106Z,6.18
2022-10-18T16:18:40.506Z,5.13
2022-10-18T16:21:31.432Z,6.38
2022-10-18T16:24:19.870Z,9.60
2022-10-18T16:27:11.559Z,6.00
2022-10-18T16:29:59.543Z,5.63
2022-10-18T16:32:49.070Z,5.28
2022-10-18T16:35:38.416Z,6.47
2022-10-18T16:38:35.208Z,8.73
2022-10-18T16:41:24.148Z,8.23
2022-10-18T16:44:12.497Z,9.15
2022-10-18T16:47:00.293Z,8.50
2022-10-18T16:49:49.161Z,10.40
2022-10-18T16:52:38.496Z,7.90
2022-10-18T16:55:26.293Z,6.20
2022-10-18T16:58:21.334Z,7.88
2022-10-18T17:01:11.843Z,9.07
2022-10-18T17:03:59.428Z,16.02
2022-10-18T17:06:48.940Z,7.03
2022-10-18T17:09:38.998Z,8.18
2022-10-18T17:12:27.334Z,8.85
2022-10-18T17:15:14.995Z,6.18
2022-10-18T17:18:03.866Z,7.57
2022-10-18T17:20:51.708Z,6.97
2022-10-18T17:23:39.310Z,5.97
2022-10-18T17:26:30.277Z,6.90
2022-10-18T17:29:19.027Z,8.38
2022-10-18T17:32:06.708Z,8.88
2022-10-18T17:34:54.208Z,10.85
2022-10-18T17:37:45.320Z,5.70
2022-10-18T17:40:41.476Z,5.60
2022-10-18T17:43:32.268Z,5.60
2022-10-18T17:46:21.120Z,5.22
2022-10-18T17:49:08.974Z,8.13
2022-10-18T17:51:56.633Z,6.10
2022-10-18T17:54:44.403Z,6.80
2022-10-18T17:57:32.147Z,6.15
2022-10-18T18:00:24.418Z,7.45
2022-10-18T18:03:13.917Z,5.95
2022-10-18T18:06:01.849Z,9.10
2022-10-18T18:08:51.427Z,6.03
2022-10-18T18:11:43.438Z,6.05
2022-10-18T18:14:31.653Z,8.38
2022-10-18T18:17:28.724Z,7.53
2022-10-18T18:23:12.024Z,7.15
2022-10-18T18:26:00.034Z,9.02
2022-10-18T18:28:48.720Z,6.18
2022-10-18T18:31:41.299Z,5.43
2022-10-18T18:34:32.471Z,6.82
2022-10-18T18:37:20.592Z,6.88
2022-10-18T18:40:09.954Z,5.90
2022-10-18T18:43:07.102Z,5.35
2022-10-18T18:46:07.439Z,6.40
2022-10-18T18:48:57.925Z,6.68
2022-10-18T18:51:47.918Z,6.57
2022-10-18T18:54:39.362Z,5.95
2022-10-18T18:57:27.108Z,7.20
2022-10-18T19:00:16.979Z,10.73
2022-10-18T19:03:08.545Z,7.43
2022-10-18T19:06:05.795Z,6.35
2022-10-18T19:09:01.036Z,6.78
2022-10-18T19:11:50.615Z,6.65
2022-10-18T19:14:38.087Z,6.57
2022-10-18T19:17:26.651Z,7.75
2022-10-18T19:20:17.670Z,7.10
2022-10-18T19:23:06.065Z,5.55
2022-10-18T19:25:55.583Z,4.82
2022-10-18T19:28:44.263Z,4.80
2022-10-18T19:31:32.577Z,7.22
2022-10-18T19:34:23.069Z,5.97
2022-10-18T19:37:12.926Z,5.28
2022-10-18T19:40:00.823Z,5.97
2022-10-18T19:42:49.863Z,5.65
2022-10-18T19:45:37.584Z,7.75
2022-10-18T19:48:25.286Z,6.18
2022-10-18T19:51:17.351Z,6.65
2022-10-18T19:54:08.985Z,9.80
2022-10-18T19:56:56.487Z,12.65
2022-10-18T19:59:45.282Z,11.57
2022-10-18T20:02:33.352Z,10.43
2022-10-18T20:05:21.161Z,10.75
2022-10-18T20:08:08.645Z,10.43
2022-10-18T20:10:57.975Z,9.98
2022-10-18T20:13:45.838Z,9.93
2022-10-18T20:16:35.188Z,9.23
2022-10-18T20:19:23.106Z,8.40
2022-10-18T20:22:10.736Z,9.07
2022-10-18T20:24:59.563Z,10.50
2022-10-18T20:27:47.238Z,7.68
2022-10-18T20:30:35.112Z,8.57
2022-10-18T20:33:24.283Z,9.68
2022-10-18T20:36:15.114Z,8.63
2022-10-18T20:39:03.637Z,9.60
2022-10-18T20:41:51.242Z,8.70
2022-10-18T20:44:43.131Z,9.73
2022-10-18T20:47:31.123Z,9.18
2022-10-18T20:50:20.026Z,10.35
2022-10-18T20:53:07.443Z,8.07
2022-10-18T20:56:05.210Z,7.65
2022-10-18T20:58:56.466Z,9.45
2022-10-18T21:01:44.365Z,7.28
2022-10-18T21:04:31.977Z,7.80
2022-10-18T21:07:22.262Z,9.13
2022-10-18T21:10:11.553Z,8.77
2022-10-18T21:13:01.562Z,8.02
2022-10-18T21:15:55.922Z,6.70
2022-10-18T21:18:43.765Z,6.72
2022-10-18T21:21:31.456Z,8.73
2022-10-18T21:24:22.604Z,9.48
2022-10-18T21:27:10.309Z,10.43
2022-10-18T21:29:57.834Z,10.68
2022-10-18T21:32:45.297Z,10.65
2022-10-18T21:35:38.550Z,10.23
2022-10-18T21:38:26.052Z,12.23
2022-10-18T21:41:17.802Z,9.30
2022-10-18T21:44:09.841Z,11.10
2022-10-18T21:46:58.311Z,6.75
2022-10-18T21:49:45.926Z,5.03
2022-10-18T21:52:33.611Z,9.10
2022-10-18T21:55:21.209Z,8.52
2022-10-18T21:58:10.178Z,4.35
2022-10-18T22:00:58.044Z,3.70
2022-10-18T22:03:49.639Z,5.50
2022-10-18T22:06:37.902Z,4.38
2022-10-18T22:09:25.871Z,4.88
2022-10-18T22:12:13.405Z,4.65
2022-10-18T22:15:02.708Z,5.57
2022-10-18T22:17:50.654Z,5.65
2022-10-18T22:20:38.263Z,6.97
2022-10-18T22:23:26.510Z,3.75
2022-10-18T22:26:17.874Z,4.18
2022-10-18T22:29:08.574Z,6.82
2022-10-18T22:31:57.660Z,5.85
2022-10-18T22:34:45.387Z,4.60
2022-10-18T22:37:33.078Z,7.30
2022-10-18T22:40:20.811Z,5.70
2022-10-18T22:43:08.391Z,7.15
2022-10-18T22:45:55.878Z,6.03
2022-10-18T22:48:45.642Z,23.40
2022-10-18T22:51:33.130Z,13.55
2022-10-18T22:54:21.326Z,9.55
2022-10-18T22:57:10.868Z,10.20
2022-10-18T22:59:58.610Z,15.77
2022-10-18T23:02:46.116Z,5.05
2022-10-18T23:05:39.974Z,20.50
2022-10-18T23:08:27.909Z,20.38
2022-10-18T23:11:16.549Z,26.15
2022-10-18T23:14:06.038Z,8.05
2022-10-18T23:16:53.935Z,16.85
2022-10-18T23:19:41.461Z,31.40
2022-10-18T23:22:33.313Z,9.27
2022-10-18T23:25:21.346Z,12.50
2022-10-18T23:28:09.278Z,31.20
2022-10-18T23:30:57.200Z,15.00
2022-10-18T23:33:45.460Z,45.08
2022-10-18T23:36:35.028Z,15.00
2022-10-18T23:39:24.151Z,24.40
2022-10-18T23:42:11.776Z,24.38
2022-10-18T23:44:59.285Z,6.38
2022-10-18T23:47:46.969Z,8.18
2022-10-18T23:50:34.612Z,6.38
2022-10-18T23:53:23.189Z,9.20
2022-10-18T23:56:14.729Z,5.55
2022-10-18T23:59:02.082Z,4.22
